• Join FlightAware (Why Join?)
  • Login
  • US Flag 
10:21AM EST


 

Airport Tracker/Info


-or-


 

Live Flight TrackerFlight Track Log ✈ N589H ✈ 05-Mar-2014 ✈ KMIA - MDPC / PUJ

Flight Track Log - Related Links

Times and Time Zones

All times are in EST time to prevent confusion due to time zone crossing. See the N589H flight status page for this flight to view local times or setup timezone preferences in your user account.

Time Position Orientation Groundspeed Altitude Reporting Facility
EST Latitude Longitude Course Direction KTS MPH feet Rate Location/Type
07:01AM 25.7983 -80.2675 96° East 167 192 700  Level Miami Center
07:02AM 25.7950 -80.2328 96° East 168 193 2,300 2,280 Climbing Miami Center
07:03AM 25.7900 -80.1772 96° East 181 208 4,400 2,040 Climbing Miami Center
07:04AM 25.7869 -80.1242 94° East 215 247 6,100 2,100 Climbing Miami Center
07:04AM 25.7872 -80.1172 87° East 212 244 6,300 2,040 Climbing Miami Center
07:05AM 25.7678 -80.0522 108° East 222 255 8,400 2,040 Climbing Miami Center
07:06AM 25.7483 -79.9847 108° East 228 262 10,400 2,040 Climbing Miami Center
07:07AM 25.7267 -79.9128 108° East 233 268 12,500 1,860 Climbing Miami Center
07:08AM 25.7072 -79.8431 107° East 233 268 14,200 1,500 Climbing Miami Center
07:09AM 25.6858 -79.7686 108° East 238 274 15,500 1,140 Climbing Miami Center
07:10AM 25.6561 -79.6850 112° Southeast 264 304 16,500 1,140 Climbing Miami Center
07:11AM 25.6222 -79.6036 115° Southeast 276 318 17,800 1,200 Climbing Miami Center
07:12AM 25.5839 -79.5244 118° Southeast 287 330 19,000 600 Climbing Miami Center
07:13AM 25.5436 -79.4336 116° Southeast 299 344 19,000  Level Miami Center
07:14AM 25.4994 -79.3361 117° Southeast 325 374 19,000  Level Miami Center
07:15AM 25.4531 -79.2361 117° Southeast 347 399 19,000  Level Miami Center
07:16AM 25.4106 -79.1386 116° Southeast 353 406 19,000  Level Miami Center
07:17AM 25.3619 -79.0389 118° Southeast 353 406 19,000 720 Level Miami Center
07:18AM 25.3194 -78.9417 116° Southeast 353 406 20,500 960 Climbing Miami Center
07:19AM 25.2811 -78.8536 116° Southeast 336 387 21,000 240 Climbing Miami Center
07:20AM 25.2364 -78.7586 117° Southeast 331 381 21,000  Level Miami Center
07:21AM 25.1894 -78.6592 118° Southeast 337 388 21,000  Level Miami Center
07:22AM 25.1447 -78.5575 116° Southeast 354 407 21,000 300 Level Miami Center
07:23AM 25.1019 -78.4561 115° Southeast 359 413 21,700 840 Climbing Miami Center
07:24AM 25.0528 -78.3661 121° Southeast 354 407 22,700 900 Climbing Miami Center
07:25AM 25.0097 -78.2736 117° Southeast 348 400 23,600 900 Climbing Miami Center
07:26AM 24.9689 -78.1817 116° Southeast 338 389 24,600 900 Climbing Miami Center
07:27AM 24.9278 -78.0872 116° Southeast 338 389 25,500 780 Climbing Miami Center
07:28AM 24.8806 -78.0064 123° Southeast 338 389 26,200 660 Climbing Miami Center
07:29AM 24.8353 -77.9100 117° Southeast 344 396 26,900 720 Climbing Miami Center
07:30AM 24.7897 -77.8111 117° Southeast 356 410 27,700 720 Climbing Miami Center
07:31AM 24.7425 -77.7125 118° Southeast 356 410 28,400 660 Climbing Miami Center
07:32AM 24.6969 -77.6092 116° Southeast 362 417 29,100 840 Climbing Miami Center
07:33AM 24.6494 -77.5150 119° Southeast 362 417 30,100 840 Climbing Miami Center
07:34AM 24.6039 -77.4119 116° Southeast 362 417 30,800 420 Climbing Miami Center
07:35AM 24.5539 -77.3111 119° Southeast 367 422 31,000 60 Climbing Miami Center
07:36AM 24.5061 -77.2036 116° Southeast 379 436 31,000  Level Miami Center
07:37AM 24.4542 -77.0939 117° Southeast 386 444 31,000  Level Miami Center
07:38AM 24.4019 -76.9867 118° Southeast 386 444 31,000  Level Miami Center
07:39AM 24.3519 -76.8769 117° Southeast 391 450 31,000  Level Miami Center
07:40AM 24.2997 -76.7700 118° Southeast 391 450 31,000  Level Miami Center
07:41AM 24.2472 -76.6606 118° Southeast 391 450 31,000  Level Miami Center
07:42AM 24.1947 -76.5514 118° Southeast 391 450 31,000  Level Miami Center
07:43AM 24.1444 -76.4467 118° Southeast 391 450 31,000  Level Miami Center
07:44AM 24.0917 -76.3397 118° Southeast 391 450 31,000  Level Miami Center
07:45AM 24.0411 -76.2331 117° Southeast 391 450 31,000  Level Miami Center
07:46AM 23.9906 -76.1286 118° Southeast 391 450 31,000  Level Miami Center
07:47AM 23.9378 -76.0222 118° Southeast 391 450 31,000  Level Miami Center
07:48AM 23.8869 -75.9158 118° Southeast 391 450 31,000  Level Miami Center
07:49AM 23.8361 -75.8094 118° Southeast 386 444 31,000  Level Miami Center
07:50AM 23.7808 -75.6964 118° Southeast 386 444 31,000  Level Miami Center
07:51AM 23.7319 -75.5922 117° Southeast 386 444 31,000  Level Miami Center
07:52AM 23.6789 -75.4861 119° Southeast 386 444 31,000  Level Miami Center
07:53AM 23.6278 -75.3825 118° Southeast 386 444 31,000  Level Miami Center
07:54AM 23.5764 -75.2786 118° Southeast 386 444 31,000  Level Miami Center
07:55AM 23.5253 -75.1706 117° Southeast 386 444 31,000  Level Miami Center
07:56AM 23.4717 -75.0694 120° Southeast 386 444 31,000  Level Miami Center
07:57AM 23.4203 -74.9661 118° Southeast 386 444 31,000  Level Miami Center
07:58AM 23.3667 -74.8581 118° Southeast 386 444 31,000  Level Miami Center
07:59AM 23.3150 -74.7550 119° Southeast 386 444 31,000  Level Miami Center
08:00AM 23.2636 -74.6517 118° Southeast 386 444 31,000  Level Miami Center
08:01AM 23.2139 -74.5442 117° Southeast 391 450 31,000  Level Miami Center
08:02AM 23.1578 -74.4389 120° Southeast 391 450 31,000  Level Miami Center
08:03AM 23.1061 -74.3361 119° Southeast 391 450 31,000  Level Miami Center
08:04AM 23.0606 -74.2422 118° Southeast 391 450 31,000  Level Miami Center
08:05AM 23.0044 -74.1394 121° Southeast 391 450 31,000  Level Miami Center
08:06AM 22.9522 -74.0300 117° Southeast 391 450 31,000  Level Miami Center
08:07AM 22.9000 -73.9253 118° Southeast 391 450 31,000  Level Miami Center
08:08AM 22.8458 -73.8228 120° Southeast 391 450 31,000  Level Miami Center
08:09AM 22.7894 -73.7183 120° Southeast 391 450 31,000  Level Miami Center
08:10AM 22.7369 -73.6136 119° Southeast 391 450 31,000  Level Miami Center
08:11AM 22.6847 -73.5092 118° Southeast 391 450 31,000  Level Miami Center
08:12AM 22.6342 -73.4047 118° Southeast 391 450 31,000  Level Miami Center
08:13AM 22.5756 -73.3006 121° Southeast 391 450 31,000  Level Miami Center
08:14AM 22.5292 -73.1964 116° Southeast 391 450 31,000  Level Miami Center
08:15AM 22.4783 -73.0853 116° Southeast 391 450 31,000  Level Miami Center
08:16AM 22.4214 -72.9836 121° Southeast 391 450 31,000  Level Miami Center
08:17AM 22.3728 -72.8819 117° Southeast 391 450 31,000  Level Miami Center
08:18AM 22.3200 -72.7803 119° Southeast 386 444 31,000  Level Miami Center
08:19AM 22.2672 -72.6811 120° Southeast 386 444 31,000  Level Miami Center
08:20AM 22.2144 -72.5817 120° Southeast 381 438 31,000  Level Miami Center
08:21AM 22.1594 -72.4806 120° Southeast 381 438 31,000  Level Miami Center
08:22AM 22.1064 -72.3814 120° Southeast 381 438 31,000  Level Miami Center
08:23AM 22.0533 -72.2825 120° Southeast 381 438 31,000  Level Miami Center
08:24AM 22.0022 -72.1836 119° Southeast 381 438 31,000  Level Miami Center
08:25AM 21.9492 -72.0825 119° Southeast 381 438 31,000  Level Miami Center
08:26AM 21.8958 -71.9839 120° Southeast 381 438 31,000  Level Miami Center
08:27AM 21.8425 -71.8853 120° Southeast 381 438 31,000  Level Miami Center
08:28AM 21.7894 -71.7867 120° Southeast 381 438 31,000  Level Miami Center
08:29AM 21.7358 -71.6861 120° Southeast 386 444 31,000  Level Miami Center
08:30AM 21.6822 -71.5853 120° Southeast 386 444 31,000  Level Miami Center
08:31AM 21.6289 -71.4872 120° Southeast 386 444 31,000  Level Miami Center
08:32AM 21.5531 -71.4078 136° Southeast 386 444 31,000  Level Miami Center
08:33AM 21.4772 -71.3306 137° Southeast 375 432 31,000  Level Miami Center
08:34AM 21.4014 -71.2511 136° Southeast 375 432 31,000  Level Miami Center
08:35AM 21.3253 -71.1675 134° Southeast 375 432 31,000  Level Miami Center
08:36AM 21.2447 -71.0775 134° Southeast 386 444 31,000  Level Miami Center
08:37AM 21.1708 -70.9961 134° Southeast 386 444 31,000  Level Miami Center
08:38AM 21.0989 -70.9172 134° Southeast 376 433 31,000  Level Miami Center
08:39AM 21.0250 -70.8383 135° Southeast 376 433 31,000  Level Miami Center
08:40AM 20.9511 -70.7594 135° Southeast 376 433 31,000  Level Miami Center
08:41AM 20.8769 -70.6783 134° Southeast 371 427 31,000  Level Miami Center
08:42AM 20.8028 -70.5997 135° Southeast 371 427 31,000  Level Miami Center
08:43AM 20.7289 -70.5211 135° Southeast 371 427 31,000  Level Miami Center
08:44AM 20.6547 -70.4406 135° Southeast 371 427 31,000  Level Miami Center
08:45AM 20.5806 -70.3597 134° Southeast 371 427 31,000  Level Miami Center
08:46AM 20.5042 -70.2817 136° Southeast 371 427 31,000  Level Miami Center
08:47AM 20.4300 -70.2033 135° Southeast 371 427 31,000 -60 Level Miami Center
08:48AM 20.3536 -70.1231 135° Southeast 376 433 30,900 -480 Descending Miami Center
08:49AM 20.2772 -70.0408 135° Southeast 376 433 30,100 -720 Descending Miami Center
08:50AM 20.2072 -69.9669 135° Southeast 382 440 29,500 -720 Descending Miami Center
08:51AM 20.1264 -69.8828 136° Southeast 397 457 28,700 -840 Descending Miami Center
08:52AM 20.0475 -69.7942 133° Southeast 397 457 27,900 -840 Descending Miami Center
08:54AM 19.9414 -69.6747 137° Southeast  Level FlightAware Approximate
09:01AM 19.4339 -69.2005 140° Southeast  Level FlightAware Approximate
09:02AM 19.3636 -69.1303 137° Southeast  Level FlightAware Approximate
09:03AM 19.2934 -69.0600 137° Southeast  Level FlightAware Approximate
09:04AM 19.2232 -68.9897 137° Southeast  Level FlightAware Approximate
09:05AM 19.1529 -68.9196 137° Southeast  Level FlightAware Approximate
09:06AM 19.0797 -68.8530 140° Southeast  Level FlightAware Approximate
09:07AM 19.0052 -68.7879 140° Southeast  Level FlightAware Approximate
09:08AM 18.9348 -68.7181 137° Southeast  Level FlightAware Approximate
09:09AM 18.8646 -68.6479 137° Southeast  Level FlightAware Approximate
09:10AM 18.7890 -68.5845 143° Southeast  Level FlightAware Approximate
09:11AM 18.7169 -68.5169 137° Southeast  Level FlightAware Approximate
09:12AM 18.6410 -68.4547 128° Southeast  Level FlightAware Approximate
09:13AM 18.5779 -68.3779 137° Southeast  Level FlightAware Approximate
09:14AM 18.5674 -68.3634 90° East  Level Estimated
09:15AM 18.5674 -68.3634 90° East  Level Estimated
09:16AM 18.5674 -68.3634 90° East  Level Estimated
09:17AM 18.5674 -68.3634 90° East  Level Estimated
09:18AM 18.5674 -68.3634 90° East  Level Estimated
09:19AM 18.5674 -68.3634 90° East  Level Estimated
09:20AM 18.5674 -68.3634 90° East  Level Estimated
09:21AM 18.5674 -68.3634 90° East  Level Estimated
09:22AM 18.5674 -68.3634 90° East  Level Estimated
09:23AM 18.5674 -68.3634 90° East  Level Estimated
09:24AM 18.5674 -68.3634 90° East  Level Estimated
09:25AM 18.5674 -68.3634 90° East  Level Estimated
09:26AM 18.5674 -68.3634 90° East  Level Estimated